ADDS METAR Data INFO
IDs: Format: Raw Decoded Include TAF

Data at: 1205 UTC 21 Jun 2018

KCEY 211155Z AUTO 21006KT 10SM SCT006 BKN060 20/20 A2984 RMK AO1
KCEY 211135Z AUTO 21006KT 10SM BKN006 OVC060 20/20 A2984 RMK AO1
KCEY 211115Z AUTO 21005KT 10SM BKN006 OVC032 20/20 A2984 RMK AO1
KCEY 211055Z AUTO 20005KT 10SM SCT006 OVC032 20/20 A2984 RMK AO1
KCEY 211035Z AUTO 21007KT 10SM BKN006 OVC034 20/20 A2984 RMK AO1
KCEY 211015Z AUTO 21007KT 9SM OVC006 20/20 A2984 RMK AO1
KCEY 210955Z AUTO 20007KT 8SM OVC006 20/20 A2984 RMK AO1 P0003
KCEY 210935Z AUTO 20007KT 9SM OVC006 20/20 A2984 RMK AO1 P0001
KCEY 210915Z AUTO 20007KT 2SM OVC005 20/20 A2984 RMK AO1 P0001
KCEY 210855Z AUTO 20008KT 170V230 10SM OVC005 20/20 A2984 RMK AO1 P0007
KCEY 210835Z AUTO 21008KT 3SM OVC005 20/20 A2985 RMK AO1 P0006
KCEY 210815Z AUTO 17004KT 3SM BKN005 BKN009 OVC016 21/21 A2984 RMK AO1 P0002
KCEY 210755Z AUTO 19003KT 9SM FEW008 BKN016 OVC100 20/20 A2985 RMK AO1
KCEY 210735Z AUTO 17004KT 10SM FEW040 SCT075 OVC100 20/20 A2986 RMK AO1
KCEY 210715Z AUTO 20004KT 10SM FEW016 BKN065 OVC110 20/20 A2986 RMK AO1
KCEY 210655Z AUTO 21006KT 10SM SCT039 BKN055 OVC070 20/20 A2987 RMK AO1 P0001
KCEY 210635Z AUTO 22006KT 10SM FEW035 SCT044 BKN050 20/20 A2987 RMK AO1 P0001
KCEY 210615Z AUTO 22005KT 10SM FEW003 SCT029 BKN037 20/20 A2988 RMK AO1
KCEY 210555Z AUTO 24009G18KT 3SM FEW004 BKN031 OVC070 20/20 A2988 RMK AO1 P0009
KCEY 210535Z AUTO 22010G17KT 5SM FEW008 BKN032 OVC075 21/21 A2989 RMK AO1 P0001
KCEY 210515Z AUTO 21008KT 10SM BKN008 BKN030 OVC049 22/22 A2990 RMK AO1
KCEY 210455Z AUTO 21009KT 8SM SCT006 BKN010 OVC024 22/22 A2990 RMK AO1 P0025
KCEY 210435Z AUTO 22012G16KT 4SM BKN006 BKN015 OVC022 22/22 A2990 RMK AO1 P0023
KCEY 210415Z AUTO 17008KT 2 1/2SM BKN005 BKN015 OVC022 22/22 A2990 RMK AO1 P0012
KCEY 210355Z AUTO 18009G20KT 4SM SCT015 BKN022 OVC110 23/23 A2991 RMK AO1 P0005
KCEY 210335Z AUTO 22006KT 10SM FEW028 SCT050 BKN110 25/24 A2990 RMK AO1
KCEY 210315Z AUTO 21005KT 10SM FEW023 FEW030 25/24 A2990 RMK AO1
KCEY 210255Z AUTO 22004KT 10SM CLR 25/24 A2990 RMK AO1
KCEY 210235Z AUTO 21004KT 10SM FEW080 FEW110 25/24 A2989 RMK AO1
KCEY 210215Z AUTO 20005KT 10SM FEW080 BKN110 25/24 A2989 RMK AO1
KCEY 210155Z AUTO 21005KT 10SM BKN110 25/23 A2989 RMK AO1
KCEY 210135Z AUTO 19005KT 10SM BKN110 25/23 A2988 RMK AO1
KCEY 210115Z AUTO 20004KT 10SM OVC110 25/23 A2989 RMK AO1
KCEY 210055Z AUTO 21005KT 10SM BKN110 26/23 A2989 RMK AO1
KCEY 210035Z AUTO 21005KT 10SM SCT110 27/23 A2989 RMK AO1
KCEY 210015Z AUTO 22005KT 10SM CLR 27/22 A2988 RMK AO1
KCEY 202355Z AUTO 22008KT 10SM CLR 27/23 A2987 RMK AO1
KCEY 202335Z AUTO 19009KT 10SM FEW110 27/23 A2987 RMK AO1
KCEY 202315Z AUTO 20008G14KT 10SM CLR 28/23 A2987 RMK AO1
KCEY 202255Z AUTO 19008G14KT 10SM CLR 28/23 A2987 RMK AO1
KCEY 202235Z AUTO 19009G15KT 10SM CLR 29/22 A2987 RMK AO1
KCEY 202215Z AUTO 18009KT 10SM CLR 29/22 A2987 RMK AO1
KCEY 202155Z AUTO 20008KT 10SM CLR 29/22 A2988 RMK AO1
KCEY 202135Z AUTO 19008KT 10SM CLR 29/22 A2988 RMK AO1
KCEY 202115Z AUTO 19009KT 160V220 10SM CLR 29/22 A2989 RMK AO1
KCEY 202055Z AUTO 20009G18KT 10SM FEW031 29/22 A2989 RMK AO1
KCEY 202035Z AUTO 20010G15KT 10SM FEW033 30/22 A2990 RMK AO1
KCEY 202015Z AUTO 21011G16KT 10SM CLR 29/22 A2990 RMK AO1
KCEY 201955Z AUTO 22013KT 10SM FEW029 29/22 A2991 RMK AO1
KCEY 201935Z AUTO 21011KT 10SM SCT029 SCT110 29/23 A2992 RMK AO1
KCEY 201915Z AUTO 22008KT 10SM FEW085 29/23 A2992 RMK AO1
KCEY 201855Z AUTO 21006KT 10SM SCT085 28/23 A2993 RMK AO1
KCEY 201835Z AUTO 28009KT 10SM SCT085 27/23 A2995 RMK AO1
KCEY 201815Z AUTO 22012KT 10SM FEW031 FEW065 BKN085 28/22 A2995 RMK AO1
KCEY 201755Z AUTO 22012KT 10SM FEW036 BKN075 OVC100 29/22 A2994 RMK AO1
KCEY 201735Z AUTO 23009KT 10SM FEW029 BKN075 BKN100 29/22 A2994 RMK AO1
KCEY 201715Z AUTO 22010KT 10SM FEW027 SCT034 SCT075 29/22 A2995 RMK AO1
KCEY 201655Z AUTO 23008G15KT 10SM SCT027 BKN032 29/23 A2995 RMK AO1
KCEY 201635Z AUTO 21010KT 10SM BKN027 29/22 A2995 RMK AO1
KCEY 201615Z AUTO 21009G17KT 10SM BKN025 BKN110 28/23 A2996 RMK AO1
KCEY 201555Z AUTO 18007KT 10SM SCT025 BKN110 28/23 A2996 RMK AO1
KCEY 201535Z AUTO 22008KT 170V250 10SM BKN110 28/23 A2996 RMK AO1
KCEY 201515Z AUTO 20007KT 10SM BKN110 28/23 A2996 RMK AO1
KCEY 201455Z AUTO 21008KT 10SM BKN110 27/23 A2996 RMK AO1
KCEY 201435Z AUTO 22007KT 10SM BKN110 27/23 A2997 RMK AO1
KCEY 201415Z AUTO 22008KT 10SM FEW110 26/23 A2997 RMK AO1
KCEY 201355Z AUTO 21005KT 10SM BKN110 26/23 A2997 RMK AO1
KCEY 201335Z AUTO 23009KT 10SM BKN110 27/22 A2997 RMK AO1
KCEY 201315Z AUTO 25005KT 10SM FEW110 27/22 A2996 RMK AO1
KCEY 201255Z AUTO 24008KT 10SM CLR 26/22 A2996 RMK AO1
KCEY 201235Z AUTO 22008KT 10SM CLR 25/22 A2996 RMK AO1
KCEY 201215Z AUTO 22008KT 10SM CLR 24/22 A2996 RMK AO1
KCEY 201155Z AUTO 21005KT 10SM CLR 23/22 A2996 RMK AO1
KCEY 201135Z AUTO 21006KT 10SM CLR 23/22 A2997 RMK AO1
KCEY 201115Z AUTO 21005KT 10SM CLR 22/22 A2996 RMK AO1
KCEY 201055Z AUTO 22007KT 10SM CLR 22/22 A2996 RMK AO1
KCEY 201035Z AUTO 22006KT 10SM FEW050 22/22 A2996 RMK AO1
KCEY 201015Z AUTO 21008KT 10SM OVC050 22/22 A2996 RMK AO1
KCEY 200955Z AUTO 21008KT 10SM BKN050 22/22 A2996 RMK AO1
KCEY 200935Z AUTO 21007KT 10SM CLR 22/22 A2995 RMK AO1
KCEY 200915Z AUTO 21007KT 10SM CLR 23/21 A2995 RMK AO1
KCEY 200855Z AUTO 22006KT 10SM CLR 23/21 A2995 RMK AO1
KCEY 200835Z AUTO 21006KT 10SM CLR 23/21 A2995 RMK AO1
KCEY 200815Z AUTO 21006KT 10SM CLR 23/21 A2995 RMK AO1
KCEY 200755Z AUTO 21005KT 10SM CLR 23/21 A2995 RMK AO1
KCEY 200735Z AUTO 21007KT 10SM CLR 23/20 A2995 RMK AO1
KCEY 200715Z AUTO 21007KT 10SM CLR 24/21 A2996 RMK AO1
KCEY 200655Z AUTO 19006KT 10SM FEW060 24/21 A2995 RMK AO1
KCEY 200635Z AUTO 20006KT 10SM FEW042 OVC060 24/21 A2995 RMK AO1
KCEY 200615Z AUTO 20006KT 10SM BKN050 24/21 A2996 RMK AO1
KCEY 200555Z AUTO 19005KT 10SM FEW050 24/22 A2996 RMK AO1
KCEY 200535Z AUTO 18004KT 10SM CLR 24/22 A2996 RMK AO1
KCEY 200515Z AUTO 19005KT 10SM FEW060 24/22 A2997 RMK AO1
KCEY 200455Z AUTO 20006KT 10SM BKN060 25/21 A2997 RMK AO1
KCEY 200435Z AUTO 19006KT 10SM BKN060 25/21 A2998 RMK AO1
KCEY 200415Z AUTO 18005KT 10SM CLR 25/21 A2997 RMK AO1
KCEY 200355Z AUTO 19006KT 10SM CLR 25/21 A2998 RMK AO1
KCEY 200335Z AUTO 19005KT 10SM CLR 25/22 A2997 RMK AO1
KCEY 200315Z AUTO 17005KT 10SM CLR 25/22 A2997 RMK AO1
KCEY 200255Z AUTO 17005KT 10SM CLR 25/22 A2997 RMK AO1
KCEY 200235Z AUTO 17004KT 10SM CLR 26/21 A2997 RMK AO1
KCEY 200215Z AUTO 16004KT 10SM CLR 26/21 A2997 RMK AO1
KCEY 200155Z AUTO 17004KT 10SM CLR 27/20 A2996 RMK AO1
KCEY 200135Z AUTO 17005KT 10SM CLR 27/20 A2996 RMK AO1
KCEY 200115Z AUTO 18004KT 10SM CLR 27/20 A2996 RMK AO1
KCEY 200055Z AUTO 18005KT 10SM CLR 28/20 A2996 RMK AO1
KCEY 200035Z AUTO 19005KT 10SM CLR 29/20 A2996 RMK AO1
KCEY 200015Z AUTO 20006KT 10SM CLR 29/20 A2997 RMK AO1